createdAt,value
2023-05-11T00:00:30.277Z,84.42
2023-05-11T00:05:32.986Z,87.21
2023-05-11T00:10:35.611Z,89.59
2023-05-11T00:15:38.303Z,92.42
2023-05-11T00:20:41.054Z,94.91
2023-05-11T00:25:43.679Z,97.15
2023-05-11T00:30:46.398Z,98.59
2023-05-11T00:35:49.466Z,100.00
2023-05-11T00:40:52.674Z,100.00
2023-05-11T00:45:55.462Z,100.00
2023-05-11T00:51:00.360Z,100.00
2023-05-11T00:56:03.949Z,100.00
2023-05-11T01:01:06.693Z,100.00
2023-05-11T01:06:19.951Z,100.00
2023-05-11T01:11:55.186Z,100.00
2023-05-11T01:17:04.091Z,100.00
2023-05-11T01:22:19.771Z,100.00
2023-05-11T01:27:59.208Z,100.00
2023-05-11T01:33:11.230Z,100.00
2023-05-11T01:38:16.169Z,100.00
2023-05-11T01:43:23.331Z,100.00
2023-05-11T01:48:29.440Z,100.00
2023-05-11T01:53:36.383Z,100.00
2023-05-11T01:58:42.218Z,100.00
2023-05-11T02:03:47.464Z,100.00
2023-05-11T02:08:53.777Z,100.00
2023-05-11T02:13:59.111Z,100.00
2023-05-11T02:19:03.628Z,100.00
2023-05-11T02:24:07.491Z,100.00
2023-05-11T02:29:11.795Z,100.00
2023-05-11T02:34:23.752Z,100.00
2023-05-11T02:39:34.317Z,100.00
2023-05-11T02:44:39.331Z,100.00
2023-05-11T02:49:43.894Z,100.00
2023-05-11T02:54:50.414Z,100.00
2023-05-11T02:59:53.808Z,100.00
2023-05-11T03:05:15.005Z,100.00
2023-05-11T03:10:18.099Z,100.00
2023-05-11T03:15:22.232Z,100.00
2023-05-11T03:20:28.504Z,100.00
2023-05-11T03:25:31.365Z,100.00
2023-05-11T03:30:34.942Z,100.00
2023-05-11T03:35:38.131Z,100.00
2023-05-11T03:40:42.871Z,100.00
2023-05-11T03:45:48.377Z,100.00
2023-05-11T03:50:52.070Z,100.00
2023-05-11T03:55:55.127Z,100.00
2023-05-11T04:00:58.078Z,100.00
2023-05-11T04:06:00.790Z,100.00
2023-05-11T04:11:04.055Z,100.00
2023-05-11T04:16:06.766Z,100.00
2023-05-11T04:21:09.774Z,100.00
2023-05-11T04:26:12.001Z,100.00
2023-05-11T04:31:14.695Z,100.00
2023-05-11T04:36:17.269Z,100.00
2023-05-11T04:41:21.009Z,100.00
2023-05-11T04:46:24.945Z,100.00
2023-05-11T04:51:27.914Z,100.00
2023-05-11T04:56:30.224Z,100.00
2023-05-11T05:01:33.092Z,95.43
2023-05-11T05:06:35.930Z,86.37
2023-05-11T05:11:38.932Z,79.60
2023-05-11T05:17:01.658Z,75.89
2023-05-11T05:22:05.623Z,69.67
2023-05-11T05:27:08.646Z,65.53
2023-05-11T05:32:11.476Z,61.07
2023-05-11T05:37:14.438Z,59.13
2023-05-11T05:42:16.916Z,55.44
2023-05-11T05:47:20.003Z,56.89
2023-05-11T05:52:23.125Z,48.05
2023-05-11T05:57:26.267Z,47.88
2023-05-11T06:02:29.398Z,40.41
2023-05-11T06:07:32.273Z,39.16
2023-05-11T06:12:34.851Z,36.78
2023-05-11T06:17:38.234Z,33.55
2023-05-11T06:22:41.032Z,29.59
2023-05-11T06:27:43.839Z,28.61
2023-05-11T06:32:46.460Z,27.82
2023-05-11T06:37:50.294Z,28.60
2023-05-11T06:42:53.470Z,27.47
2023-05-11T06:47:55.676Z,28.65
2023-05-11T06:52:59.208Z,27.59
2023-05-11T06:58:04.647Z,26.67
2023-05-11T07:03:07.946Z,28.53
2023-05-11T07:08:10.560Z,28.01
2023-05-11T07:13:13.394Z,28.22
2023-05-11T07:18:16.278Z,30.11
2023-05-11T07:23:18.355Z,31.29
2023-05-11T07:28:20.968Z,28.94
2023-05-11T07:33:24.287Z,29.48
2023-05-11T07:38:26.974Z,30.28
2023-05-11T07:43:29.716Z,31.01
2023-05-11T07:48:32.302Z,31.60
2023-05-11T07:53:35.507Z,32.66
2023-05-11T07:58:37.689Z,32.28
2023-05-11T08:03:40.257Z,33.23
2023-05-11T08:08:42.303Z,31.86
2023-05-11T08:13:44.951Z,30.95
2023-05-11T08:18:47.167Z,30.43
2023-05-11T08:23:49.830Z,30.02
2023-05-11T08:28:54.642Z,30.99
2023-05-11T08:33:57.373Z,30.75
2023-05-11T08:38:59.787Z,32.96
2023-05-11T08:44:03.104Z,32.09
2023-05-11T08:49:05.885Z,32.06
2023-05-11T08:54:08.719Z,32.44
2023-05-11T08:59:14.235Z,33.44
2023-05-11T09:04:18.827Z,34.77
2023-05-11T09:09:21.428Z,35.73
2023-05-11T09:19:29.652Z,34.69
2023-05-11T09:24:31.955Z,33.07
2023-05-11T09:29:34.566Z,35.47
2023-05-11T09:34:43.273Z,33.97
2023-05-11T09:40:14.104Z,35.61
2023-05-11T09:45:09.602Z,35.41
2023-05-11T09:50:18.881Z,33.74
2023-05-11T09:55:29.502Z,33.81
2023-05-11T10:00:32.814Z,35.95
2023-05-11T10:05:37.887Z,36.86
2023-05-11T10:10:40.807Z,36.93
2023-05-11T10:15:44.941Z,36.58
2023-05-11T10:20:47.997Z,37.53
2023-05-11T10:25:52.361Z,36.15
2023-05-11T10:30:55.322Z,36.53
2023-05-11T10:35:58.022Z,36.82
2023-05-11T10:41:13.438Z,37.24
2023-05-11T10:46:48.250Z,36.24
2023-05-11T10:52:18.002Z,37.10
2023-05-11T10:57:36.638Z,35.91
2023-05-11T11:02:39.661Z,36.13
2023-05-11T11:08:04.227Z,36.22
2023-05-11T11:13:12.349Z,36.80
2023-05-11T11:18:28.531Z,35.01
2023-05-11T11:23:44.253Z,34.70
2023-05-11T11:29:02.259Z,35.16
2023-05-11T11:34:29.678Z,36.42
2023-05-11T11:39:46.427Z,34.44
2023-05-11T11:44:49.364Z,34.36
2023-05-11T11:49:54.983Z,35.13
2023-05-11T11:55:01.412Z,35.37
2023-05-11T12:00:07.463Z,37.11
2023-05-11T12:05:22.846Z,38.39
2023-05-11T12:10:26.145Z,41.77
2023-05-11T12:15:30.747Z,42.75
2023-05-11T12:20:33.252Z,44.16
2023-05-11T12:25:35.943Z,43.63
2023-05-11T12:30:38.465Z,44.95
2023-05-11T12:35:41.537Z,44.93
2023-05-11T12:40:52.938Z,43.71
2023-05-11T12:45:55.792Z,44.37
2023-05-11T12:50:58.592Z,43.18
2023-05-11T12:56:01.019Z,43.97
2023-05-11T13:01:03.630Z,44.93
2023-05-11T13:06:07.519Z,44.84
2023-05-11T13:11:25.771Z,45.44
2023-05-11T13:16:31.306Z,45.80
2023-05-11T13:21:34.526Z,45.81
2023-05-11T13:26:37.232Z,45.72
2023-05-11T13:31:53.794Z,45.02
2023-05-11T13:36:57.006Z,45.54
2023-05-11T13:41:59.218Z,45.13
2023-05-11T13:47:02.029Z,45.70
2023-05-11T13:52:05.098Z,45.09
2023-05-11T13:57:07.960Z,44.94
2023-05-11T14:02:10.697Z,44.58
2023-05-11T14:07:14.609Z,45.21
2023-05-11T14:12:17.494Z,44.73
2023-05-11T14:17:20.133Z,46.27
2023-05-11T14:22:22.772Z,45.74
2023-05-11T14:27:25.532Z,46.95
2023-05-11T14:32:28.229Z,47.49
2023-05-11T14:37:30.426Z,47.08
2023-05-11T14:42:33.140Z,46.85
2023-05-11T14:47:36.217Z,46.19
2023-05-11T14:52:38.923Z,46.38
2023-05-11T14:57:41.393Z,46.11
2023-05-11T15:02:43.958Z,46.67
2023-05-11T15:07:46.094Z,47.30
2023-05-11T15:12:48.626Z,47.58
2023-05-11T15:17:51.376Z,48.34
2023-05-11T15:22:53.987Z,48.38
2023-05-11T15:27:56.745Z,48.60
2023-05-11T15:32:59.593Z,48.75
2023-05-11T15:38:02.224Z,47.78
2023-05-11T15:43:04.956Z,48.43
2023-05-11T15:48:07.937Z,48.44
2023-05-11T15:53:10.569Z,48.60
2023-05-11T15:58:14.025Z,48.66
2023-05-11T16:03:16.963Z,47.64
2023-05-11T16:08:19.831Z,48.05
2023-05-11T16:13:22.362Z,48.56
2023-05-11T16:18:24.947Z,49.26
2023-05-11T16:23:27.682Z,49.53
2023-05-11T16:28:30.290Z,50.39
2023-05-11T16:33:32.673Z,50.82
2023-05-11T16:38:35.996Z,51.35
2023-05-11T16:43:42.025Z,51.72
2023-05-11T16:48:44.294Z,51.63
2023-05-11T16:53:48.093Z,52.17
2023-05-11T16:58:50.282Z,52.79
2023-05-11T17:03:53.184Z,52.23
2023-05-11T17:08:55.912Z,53.14
2023-05-11T17:13:58.496Z,53.46
2023-05-11T17:19:04.118Z,54.32
2023-05-11T17:24:06.926Z,54.56
2023-05-11T17:29:10.140Z,55.64
2023-05-11T17:34:12.856Z,56.84
2023-05-11T17:39:16.720Z,58.14
2023-05-11T17:44:19.286Z,58.73
2023-05-11T17:49:21.485Z,59.48
2023-05-11T17:54:24.173Z,60.90
2023-05-11T17:59:28.212Z,61.67
2023-05-11T18:04:30.462Z,62.63
2023-05-11T18:09:32.954Z,63.63
2023-05-11T18:14:35.619Z,65.09
2023-05-11T18:19:38.688Z,66.56
2023-05-11T18:24:41.424Z,67.46
2023-05-11T18:29:45.212Z,68.44
2023-05-11T18:34:48.323Z,69.42
2023-05-11T18:39:51.159Z,70.90
2023-05-11T18:44:54.544Z,71.58
2023-05-11T18:49:57.576Z,71.79
2023-05-11T18:55:00.391Z,72.18
2023-05-11T19:00:02.580Z,72.32
2023-05-11T19:05:05.833Z,72.67
2023-05-11T19:10:09.008Z,72.16
2023-05-11T19:15:11.926Z,72.85
2023-05-11T19:20:15.089Z,72.72
2023-05-11T19:25:17.857Z,72.65
2023-05-11T19:30:20.427Z,73.16
2023-05-11T19:35:23.394Z,72.70
2023-05-11T19:40:45.169Z,72.34
2023-05-11T19:45:48.608Z,71.96
2023-05-11T19:50:51.721Z,71.18
2023-05-11T19:55:54.273Z,71.21
2023-05-11T20:00:56.810Z,68.98
2023-05-11T20:05:59.412Z,65.24
2023-05-11T20:11:02.557Z,63.64
2023-05-11T20:16:05.411Z,61.81
2023-05-11T20:21:08.007Z,61.56
2023-05-11T20:26:10.628Z,60.36
2023-05-11T20:31:13.281Z,60.53
2023-05-11T20:36:15.834Z,60.22
2023-05-11T20:41:17.979Z,60.26
2023-05-11T20:46:23.643Z,58.80
2023-05-11T20:51:26.473Z,58.37
2023-05-11T20:56:29.282Z,58.65
2023-05-11T21:01:32.028Z,58.22
2023-05-11T21:06:35.846Z,57.99
2023-05-11T21:11:38.404Z,57.55
2023-05-11T21:16:43.849Z,57.18
2023-05-11T21:21:49.692Z,58.50
2023-05-11T21:26:52.513Z,59.71
2023-05-11T21:31:55.884Z,58.67
2023-05-11T21:36:59.950Z,58.77
2023-05-11T21:42:03.781Z,58.54
2023-05-11T21:47:06.203Z,57.65
2023-05-11T21:52:08.908Z,56.99
2023-05-11T21:57:11.519Z,55.42
2023-05-11T22:02:14.131Z,54.50
2023-05-11T22:07:16.629Z,54.09
2023-05-11T22:12:19.696Z,54.06
2023-05-11T22:17:23.160Z,53.65
2023-05-11T22:22:25.889Z,53.38
2023-05-11T22:27:30.059Z,52.67
2023-05-11T22:32:32.272Z,52.70
2023-05-11T22:37:34.869Z,52.65
2023-05-11T22:42:38.293Z,52.36
2023-05-11T22:47:40.941Z,52.83
2023-05-11T22:52:43.557Z,52.83
2023-05-11T22:57:46.060Z,52.72
2023-05-11T23:02:48.956Z,52.30
2023-05-11T23:07:52.138Z,52.05
2023-05-11T23:12:55.493Z,52.50
2023-05-11T23:17:58.342Z,53.35
2023-05-11T23:23:01.063Z,51.97
2023-05-11T23:28:03.335Z,51.06
2023-05-11T23:33:06.278Z,50.71
2023-05-11T23:38:09.057Z,49.93
2023-05-11T23:43:11.667Z,49.87
2023-05-11T23:48:14.656Z,49.01
2023-05-11T23:53:17.310Z,47.96
2023-05-11T23:58:19.535Z,47.82
